Time;durP1;ratioP1;P1;durP2;ratioP2;P2;SDS_P1;SDS_P2;PMS_P1;PMS_P2;Temp;Humidity;BMP_temperature;BMP_pressure;BME280_temperature;BME280_humidity;BME280_pressure;Samples;Min_cycle;Max_cycle;Signal;HPM_P1;HPM_P2
2023/05/04 00:00:18;;;;;;;57.60;29.75;;;10.00;82.90;;;;;;4808895;29;20624;-83
2023/05/04 00:02:45;;;;;;;59.97;30.73;;;10.10;82.30;;;;;;4808974;29;20107;-82
2023/05/04 00:05:13;;;;;;;54.10;28.23;;;10.10;82.00;;;;;;4824662;29;20043;-83
2023/05/04 00:07:40;;;;;;;52.38;29.50;;;10.20;81.60;;;;;;4823648;29;20111;-83
2023/05/04 00:10:08;;;;;;;58.83;30.50;;;10.20;81.70;;;;;;4793491;29;20063;-83
2023/05/04 00:12:35;;;;;;;59.45;31.98;;;10.20;81.80;;;;;;4802248;29;20043;-83
2023/05/04 00:15:03;;;;;;;63.40;32.97;;;10.10;82.00;;;;;;4802412;29;20055;-83
2023/05/04 00:17:31;;;;;;;73.63;35.15;;;10.10;82.30;;;;;;4781872;30;20047;-83
2023/05/04 00:19:58;;;;;;;72.75;33.83;;;10.00;82.80;;;;;;4787071;30;20039;-82
2023/05/04 00:22:25;;;;;;;75.50;36.50;;;10.00;83.00;;;;;;4802079;29;20047;-82
2023/05/04 00:24:52;;;;;;;82.15;35.90;;;10.00;83.10;;;;;;4777350;30;20054;-82
2023/05/04 00:27:37;;;;;;;81.55;37.70;;;10.00;83.20;;;;;;4801959;29;20057;-83
2023/05/04 00:30:05;;;;;;;79.75;35.80;;;10.00;83.40;;;;;;4802232;29;20078;-82
2023/05/04 00:32:32;;;;;;;83.28;37.67;;;9.90;83.60;;;;;;4793368;29;20133;-83
2023/05/04 00:34:59;;;;;;;82.70;37.27;;;9.80;84.10;;;;;;4793251;29;20051;-81
2023/05/04 00:37:26;;;;;;;89.47;38.58;;;9.80;84.30;;;;;;4801824;29;20085;-83
2023/05/04 00:39:54;;;;;;;94.97;38.63;;;9.70;84.50;;;;;;4802034;29;20451;-82
2023/05/04 00:42:21;;;;;;;89.95;37.60;;;9.70;84.50;;;;;;4787205;29;20464;-82
2023/05/04 00:44:48;;;;;;;83.63;36.10;;;9.70;84.60;;;;;;4801907;29;20051;-82
2023/05/04 00:47:18;;;;;;;89.40;37.50;;;9.80;84.50;;;;;;4801763;29;20130;-82
2023/05/04 00:49:45;;;;;;;92.95;39.75;;;9.80;84.50;;;;;;4786731;29;20116;-82
2023/05/04 00:52:14;;;;;;;91.65;35.83;;;9.70;84.80;;;;;;4801833;29;20047;-83
2023/05/04 00:54:44;;;;;;;91.22;37.05;;;9.60;85.20;;;;;;4786320;29;20054;-83
2023/05/04 00:57:12;;;;;;;94.30;36.45;;;9.70;85.30;;;;;;4801499;29;20542;-83
2023/05/04 00:59:39;;;;;;;88.97;36.87;;;9.80;85.00;;;;;;4798929;29;20050;-83
2023/05/04 01:02:06;;;;;;;89.85;35.65;;;9.80;85.00;;;;;;4801549;29;20055;-82
2023/05/04 01:04:36;;;;;;;85.22;35.38;;;9.90;84.80;;;;;;4800290;29;20545;-83
2023/05/04 01:07:42;;;;;;;84.35;34.72;;;10.00;84.50;;;;;;4801348;29;20499;-83
2023/05/04 01:10:21;;;;;;;75.35;32.28;;;10.00;84.50;;;;;;4781928;29;20086;-81
2023/05/04 01:12:59;;;;;;;82.27;33.60;;;10.10;84.20;;;;;;4777158;29;20044;-83
2023/05/04 01:15:27;;;;;;;85.07;34.63;;;10.10;84.20;;;;;;4769796;30;20071;-82
2023/05/04 01:17:54;;;;;;;77.25;33.17;;;10.10;84.10;;;;;;4786457;29;20048;-83
2023/05/04 01:20:21;;;;;;;94.32;35.30;;;10.10;84.20;;;;;;4768746;30;20082;-83
2023/05/04 01:22:48;;;;;;;86.13;32.60;;;10.10;84.10;;;;;;4786189;30;20154;-82
2023/05/04 01:25:16;;;;;;;80.13;32.33;;;10.00;84.00;;;;;;4801494;29;20062;-82
2023/05/04 01:27:55;;;;;;;75.47;30.77;;;10.10;84.00;;;;;;4786459;29;20093;-82
2023/05/04 01:30:29;;;;;;;65.95;28.83;;;10.10;83.80;;;;;;4771274;30;20055;-82
2023/05/04 01:32:58;;;;;;;68.55;29.25;;;10.10;83.60;;;;;;4786412;29;20055;-83
2023/05/04 01:35:25;;;;;;;66.95;30.48;;;10.20;83.40;;;;;;4786264;30;20414;-83
2023/05/04 01:37:53;;;;;;;63.80;28.40;;;10.20;83.40;;;;;;4771406;30;20047;-82
2023/05/04 01:40:20;;;;;;;62.50;29.63;;;10.10;83.20;;;;;;4771250;30;20075;-83
2023/05/04 01:42:47;;;;;;;66.97;27.40;;;10.10;83.20;;;;;;4801189;29;20052;-83
2023/05/04 01:45:14;;;;;;;58.15;27.75;;;10.00;83.40;;;;;;4786215;30;20067;-83
2023/05/04 01:47:41;;;;;;;62.03;27.67;;;10.00;83.80;;;;;;4786265;30;20050;-83
2023/05/04 01:50:10;;;;;;;60.20;27.27;;;10.00;83.90;;;;;;4771528;30;20055;-82
2023/05/04 01:52:37;;;;;;;60.90;28.05;;;9.90;84.00;;;;;;4800907;29;20043;-83
2023/05/04 01:55:04;;;;;;;64.57;28.20;;;9.80;84.20;;;;;;4786122;30;20051;-82
2023/05/04 01:57:31;;;;;;;63.85;28.38;;;9.90;84.40;;;;;;4785992;30;20070;-83
2023/05/04 01:59:58;;;;;;;67.65;28.55;;;9.90;84.30;;;;;;4771341;30;20096;-83
2023/05/04 02:02:25;;;;;;;64.33;28.10;;;10.00;84.10;;;;;;4786188;30;20503;-82
2023/05/04 02:04:52;;;;;;;61.28;28.15;;;10.00;83.80;;;;;;4786501;29;20592;-83
2023/05/04 02:07:20;;;;;;;57.78;25.55;;;10.10;83.70;;;;;;4804469;29;20055;-83
2023/05/04 02:09:46;;;;;;;62.10;26.25;;;10.20;83.50;;;;;;4804657;29;20541;-83
2023/05/04 02:12:14;;;;;;;64.45;28.33;;;10.20;83.30;;;;;;4807389;29;20137;-83
2023/05/04 02:14:41;;;;;;;60.00;28.20;;;10.20;83.10;;;;;;4822303;29;20042;-83
2023/05/04 02:17:08;;;;;;;59.25;27.13;;;10.20;83.00;;;;;;4807367;29;20506;-83
2023/05/04 02:19:36;;;;;;;55.15;26.05;;;10.30;83.00;;;;;;4821144;29;20099;-82
2023/05/04 02:22:05;;;;;;;57.38;25.10;;;10.30;82.90;;;;;;4806968;29;20059;-83
2023/05/04 02:24:33;;;;;;;55.92;25.65;;;10.30;82.60;;;;;;4807140;29;20403;-82
2023/05/04 02:27:00;;;;;;;51.90;24.47;;;10.20;82.40;;;;;;4807183;29;20059;-83
2023/05/04 02:29:28;;;;;;;50.35;25.65;;;10.10;82.80;;;;;;4822327;29;20711;-83
2023/05/04 02:31:55;;;;;;;57.28;26.45;;;10.10;82.90;;;;;;4807098;29;20571;-81
2023/05/04 02:34:22;;;;;;;55.10;26.08;;;10.10;82.80;;;;;;4822374;29;20047;-83
2023/05/04 02:36:49;;;;;;;54.92;25.02;;;10.10;82.60;;;;;;4818399;29;20051;-83
2023/05/04 02:39:16;;;;;;;57.63;26.23;;;10.10;82.50;;;;;;4822028;29;20138;-83
2023/05/04 02:41:43;;;;;;;58.90;27.25;;;10.10;82.30;;;;;;4821907;29;20107;-83
2023/05/04 02:44:10;;;;;;;57.53;26.45;;;10.10;82.10;;;;;;4793844;29;20066;-83
2023/05/04 02:46:37;;;;;;;53.00;25.15;;;10.10;82.30;;;;;;4806814;29;20513;-82
2023/05/04 02:49:05;;;;;;;53.47;25.95;;;10.00;82.50;;;;;;4821867;29;20141;-81
2023/05/04 02:51:32;;;;;;;57.67;25.93;;;9.90;82.70;;;;;;4821937;29;20133;-83
2023/05/04 02:53:59;;;;;;;57.25;27.65;;;9.80;83.10;;;;;;4821650;29;20047;-82
2023/05/04 02:56:26;;;;;;;61.17;27.15;;;9.80;83.40;;;;;;4821581;29;20536;-82
2023/05/04 02:58:53;;;;;;;65.10;26.85;;;9.70;83.60;;;;;;4821660;29;20067;-82
2023/05/04 03:01:20;;;;;;;58.53;27.23;;;9.80;83.60;;;;;;4802638;29;20055;-83
2023/05/04 03:03:47;;;;;;;58.80;26.83;;;9.80;83.40;;;;;;4818374;29;20043;-83
2023/05/04 03:06:14;;;;;;;67.72;28.33;;;9.70;83.70;;;;;;4806603;29;20086;-82
2023/05/04 03:08:42;;;;;;;59.25;26.42;;;9.70;83.60;;;;;;4809654;29;20123;-83
2023/05/04 03:11:09;;;;;;;61.35;26.65;;;9.70;83.50;;;;;;4804842;29;20142;-82
2023/05/04 03:13:36;;;;;;;62.25;27.95;;;9.60;83.80;;;;;;4822402;29;20485;-83
2023/05/04 03:16:04;;;;;;;56.07;25.77;;;9.50;83.90;;;;;;4824235;29;20057;-82
2023/05/04 03:18:31;;;;;;;52.63;24.50;;;9.50;84.10;;;;;;4809283;29;20497;-84
2023/05/04 03:21:16;;;;;;;53.88;25.08;;;9.60;83.90;;;;;;4809112;29;20026;-82
2023/05/04 03:23:43;;;;;;;60.67;25.63;;;9.70;83.70;;;;;;4823794;29;20493;-84
2023/05/04 03:26:10;;;;;;;57.33;25.63;;;9.80;83.40;;;;;;4807105;29;20098;-84
2023/05/04 03:28:37;;;;;;;58.70;25.93;;;9.80;83.10;;;;;;4794778;29;20497;-84
2023/05/04 03:31:04;;;;;;;58.35;25.60;;;9.80;83.30;;;;;;4824798;29;20497;-83
2023/05/04 03:33:31;;;;;;;52.58;24.45;;;9.90;83.20;;;;;;4809542;29;20054;-82
2023/05/04 03:35:58;;;;;;;53.72;24.58;;;9.80;83.20;;;;;;4824454;29;20043;-82
2023/05/04 03:38:25;;;;;;;54.92;24.77;;;9.90;83.10;;;;;;4824995;29;20117;-81
2023/05/04 03:40:54;;;;;;;52.63;23.77;;;9.70;83.40;;;;;;4776584;29;20046;-82
2023/05/04 03:43:22;;;;;;;50.67;24.48;;;9.70;83.40;;;;;;4821049;29;20122;-82
2023/05/04 03:45:49;;;;;;;51.45;23.55;;;9.70;83.30;;;;;;4793741;29;20046;-82
2023/05/04 03:48:16;;;;;;;51.40;22.33;;;9.60;83.30;;;;;;4793574;29;20054;-81
2023/05/04 03:50:43;;;;;;;52.38;23.08;;;9.50;83.50;;;;;;4824324;29;20061;-82
2023/05/04 03:53:10;;;;;;;60.27;24.03;;;9.50;83.70;;;;;;4808995;29;20043;-82
2023/05/04 03:55:37;;;;;;;55.92;23.65;;;9.40;84.00;;;;;;4824165;29;20088;-82
2023/05/04 03:58:04;;;;;;;64.35;24.33;;;9.30;84.20;;;;;;4808508;29;20042;-82
2023/05/04 04:00:31;;;;;;;56.67;23.23;;;9.20;84.50;;;;;;4808233;29;20084;-82
2023/05/04 04:03:07;;;;;;;63.35;24.00;;;9.30;84.70;;;;;;4823153;29;20046;-82
2023/05/04 04:05:36;;;;;;;58.70;24.43;;;9.30;84.40;;;;;;4808489;29;20103;-82
2023/05/04 04:08:03;;;;;;;53.53;22.35;;;9.30;84.50;;;;;;4794450;29;20047;-82
2023/05/04 04:10:30;;;;;;;57.92;23.60;;;9.30;84.30;;;;;;4823235;29;20063;-82
2023/05/04 04:12:57;;;;;;;49.50;22.25;;;9.40;84.40;;;;;;4808820;29;20429;-82
2023/05/04 04:15:25;;;;;;;52.30;22.60;;;9.40;84.20;;;;;;4813327;29;20054;-83
2023/05/04 04:17:52;;;;;;;55.33;21.50;;;9.40;84.20;;;;;;4808727;29;20046;-82
2023/05/04 04:20:19;;;;;;;53.15;22.85;;;9.40;84.20;;;;;;4823084;29;20746;-82
2023/05/04 04:22:46;;;;;;;47.95;20.85;;;9.40;84.10;;;;;;4823303;29;20152;-81
2023/05/04 04:25:14;;;;;;;53.97;21.50;;;9.50;83.90;;;;;;4823113;29;20054;-82
2023/05/04 04:27:40;;;;;;;52.88;21.77;;;9.50;83.60;;;;;;4822352;29;20494;-82
2023/05/04 04:30:08;;;;;;;57.43;23.30;;;9.50;83.50;;;;;;4805367;29;20417;-82
2023/05/04 04:32:36;;;;;;;50.88;21.45;;;9.60;83.50;;;;;;4823003;29;20050;-82
2023/05/04 04:35:04;;;;;;;66.47;22.33;;;9.50;84.00;;;;;;4822741;29;20051;-82
2023/05/04 04:37:31;;;;;;;55.53;21.25;;;9.50;83.90;;;;;;4823112;29;20098;-82
2023/05/04 04:39:58;;;;;;;53.80;21.80;;;9.40;84.00;;;;;;4806305;29;20047;-82
2023/05/04 04:42:25;;;;;;;51.53;20.20;;;9.50;84.10;;;;;;4808214;29;20133;-82
2023/05/04 04:44:52;;;;;;;65.97;23.52;;;9.50;83.70;;;;;;4807867;29;20050;-82
2023/05/04 04:47:19;;;;;;;70.03;22.98;;;9.40;84.00;;;;;;4804831;29;20050;-82
2023/05/04 04:49:46;;;;;;;58.60;22.35;;;9.40;84.10;;;;;;4821031;29;20137;-82
2023/05/04 04:52:13;;;;;;;63.35;22.88;;;9.40;84.20;;;;;;4792755;29;20111;-83
2023/05/04 04:54:41;;;;;;;57.00;22.23;;;9.40;84.10;;;;;;4810295;29;20046;-82
2023/05/04 04:57:09;;;;;;;60.47;22.60;;;9.40;84.30;;;;;;4805737;29;20104;-84
2023/05/04 04:59:36;;;;;;;57.38;20.92;;;9.50;84.20;;;;;;4792968;29;20087;-87
2023/05/04 05:02:03;;;;;;;52.05;19.17;;;9.50;84.00;;;;;;4808188;29;20054;-86
2023/05/04 05:04:30;;;;;;;51.08;20.13;;;9.50;83.50;;;;;;4823194;29;20086;-86
2023/05/04 05:06:58;;;;;;;50.57;19.13;;;9.50;83.80;;;;;;4808346;29;20050;-86
2023/05/04 05:09:25;;;;;;;47.95;19.23;;;9.50;83.60;;;;;;4822959;29;20107;-86
2023/05/04 05:11:52;;;;;;;52.03;18.90;;;9.50;83.70;;;;;;4800752;29;20043;-85
2023/05/04 05:14:19;;;;;;;46.95;18.75;;;9.60;83.90;;;;;;4808275;29;20043;-85
2023/05/04 05:16:46;;;;;;;52.45;20.02;;;9.70;83.40;;;;;;4808284;29;20057;-86
2023/05/04 05:19:13;;;;;;;60.87;20.47;;;9.70;83.30;;;;;;4807915;29;20521;-86
2023/05/04 05:21:40;;;;;;;56.80;20.40;;;9.70;83.40;;;;;;4818899;29;20087;-86
2023/05/04 05:24:15;;;;;;;54.17;18.63;;;9.70;83.40;;;;;;4809275;29;20050;-85
2023/05/04 05:26:42;;;;;;;58.90;20.40;;;9.70;83.30;;;;;;4823548;29;20050;-85
2023/05/04 05:29:09;;;;;;;56.30;19.13;;;9.60;83.40;;;;;;4812394;29;20141;-93
2023/05/04 05:31:38;;;;;;;53.13;19.97;;;9.60;83.50;;;;;;4822548;29;20056;-85
2023/05/04 05:34:06;;;;;;;51.05;20.10;;;9.70;83.70;;;;;;4806865;29;20046;-85
2023/05/04 05:36:33;;;;;;;52.15;19.58;;;9.80;83.30;;;;;;4806532;29;20107;-84
2023/05/04 05:39:00;;;;;;;48.85;19.40;;;9.70;83.40;;;;;;4822254;29;20061;-85
2023/05/04 05:41:27;;;;;;;51.75;19.50;;;9.70;83.60;;;;;;4803331;29;20046;-85
2023/05/04 05:43:54;;;;;;;48.67;18.67;;;9.90;83.50;;;;;;4795581;29;20135;-85
2023/05/04 05:46:21;;;;;;;50.60;18.92;;;9.90;82.60;;;;;;4810933;29;20046;-85
2023/05/04 05:48:48;;;;;;;48.35;19.23;;;10.00;82.20;;;;;;4795762;29;20046;-85
2023/05/04 05:51:15;;;;;;;48.85;18.23;;;10.00;82.60;;;;;;4810647;29;20047;-84
2023/05/04 05:53:43;;;;;;;44.30;17.92;;;10.00;82.40;;;;;;4810517;29;20078;-85
2023/05/04 05:56:11;;;;;;;47.00;18.07;;;10.10;82.10;;;;;;4825654;29;20095;-85
2023/05/04 05:58:38;;;;;;;42.33;18.38;;;10.20;81.70;;;;;;4795521;29;20485;-85
2023/05/04 06:01:05;;;;;;;41.50;18.42;;;10.30;81.40;;;;;;4810270;29;20043;-85
2023/05/04 06:03:33;;;;;;;39.90;16.60;;;10.50;81.30;;;;;;4809861;29;20054;-85
2023/05/04 06:06:01;;;;;;;39.33;18.65;;;10.50;80.90;;;;;;4810334;29;20046;-85
2023/05/04 06:08:28;;;;;;;36.93;17.03;;;10.60;81.00;;;;;;4810414;29;20046;-85
2023/05/04 06:10:55;;;;;;;37.05;16.58;;;10.80;80.90;;;;;;4810032;29;20079;-85
2023/05/04 06:13:22;;;;;;;38.38;16.98;;;10.90;80.90;;;;;;4792390;29;20046;-85
2023/05/04 06:15:50;;;;;;;35.20;16.75;;;11.00;80.60;;;;;;4809623;29;20073;-85
2023/05/04 06:18:18;;;;;;;34.20;16.52;;;11.10;79.70;;;;;;4798299;29;20042;-85
2023/05/04 06:20:45;;;;;;;36.13;15.90;;;11.30;79.50;;;;;;4810894;29;20046;-85
2023/05/04 06:23:13;;;;;;;42.00;18.55;;;11.30;78.20;;;;;;4824901;29;20129;-85
2023/05/04 06:25:41;;;;;;;43.58;18.10;;;11.20;78.10;;;;;;4825137;29;20056;-85
2023/05/04 06:28:08;;;;;;;42.40;17.88;;;11.20;78.50;;;;;;4795064;29;20054;-85
2023/05/04 06:30:35;;;;;;;35.90;17.65;;;11.20;79.80;;;;;;4810257;29;20058;-85
2023/05/04 06:33:03;;;;;;;36.07;16.97;;;11.30;79.60;;;;;;4809711;29;20085;-85
2023/05/04 06:35:30;;;;;;;35.13;15.70;;;11.40;78.40;;;;;;4810067;29;20103;-85
2023/05/04 06:37:57;;;;;;;38.28;17.38;;;11.50;77.90;;;;;;4825111;29;20049;-85
2023/05/04 06:40:25;;;;;;;38.72;18.55;;;11.60;78.30;;;;;;4810271;29;20050;-85
2023/05/04 06:42:52;;;;;;;32.75;16.70;;;11.80;78.10;;;;;;4810276;29;20393;-85
2023/05/04 06:45:19;;;;;;;32.57;16.07;;;11.90;76.90;;;;;;4809690;29;20050;-85
2023/05/04 06:47:46;;;;;;;32.80;15.98;;;11.90;76.80;;;;;;4810020;29;20047;-85
2023/05/04 06:50:14;;;;;;;36.30;16.15;;;12.00;76.90;;;;;;4794449;29;20417;-85
2023/05/04 06:52:43;;;;;;;29.65;14.45;;;12.10;77.90;;;;;;4824392;29;20441;-85
2023/05/04 06:55:11;;;;;;;27.48;13.50;;;12.10;76.00;;;;;;4811960;29;20517;-86
2023/05/04 06:57:38;;;;;;;27.20;14.97;;;12.00;76.10;;;;;;4794865;29;20096;-85
2023/05/04 07:00:07;;;;;;;27.80;14.45;;;12.10;76.10;;;;;;4809346;29;20050;-85
2023/05/04 07:02:34;;;;;;;30.92;14.43;;;12.40;75.80;;;;;;4794107;29;20042;-85
2023/05/04 07:05:02;;;;;;;28.25;14.50;;;12.50;75.90;;;;;;4799246;29;20532;-85
2023/05/04 07:07:29;;;;;;;27.52;15.00;;;12.70;76.10;;;;;;4810373;29;20398;-85
2023/05/04 07:09:57;;;;;;;30.30;15.50;;;12.80;74.90;;;;;;4809508;29;20084;-85
2023/05/04 07:12:25;;;;;;;27.95;15.20;;;13.00;74.10;;;;;;4794369;29;20050;-86
2023/05/04 07:14:52;;;;;;;28.50;14.60;;;12.80;73.60;;;;;;4824454;29;20053;-85
2023/05/04 07:17:20;;;;;;;27.77;14.38;;;12.80;74.30;;;;;;4808109;29;20435;-85
2023/05/04 07:19:51;;;;;;;28.55;15.82;;;12.80;74.40;;;;;;4809036;29;20397;-85
2023/05/04 07:22:19;;;;;;;30.63;16.20;;;12.80;74.50;;;;;;4808504;29;20520;-85
2023/05/04 07:24:46;;;;;;;32.53;16.90;;;12.60;75.60;;;;;;4824130;29;20175;-85
2023/05/04 07:27:13;;;;;;;30.98;17.58;;;12.60;76.30;;;;;;4794475;29;20078;-85
2023/05/04 07:29:40;;;;;;;31.13;16.55;;;12.50;75.30;;;;;;4794384;29;20471;-85
2023/05/04 07:32:07;;;;;;;27.77;15.30;;;12.60;76.40;;;;;;4794129;29;20051;-85
2023/05/04 07:34:34;;;;;;;28.20;15.17;;;12.80;74.70;;;;;;4809089;29;20042;-86
2023/05/04 07:37:12;;;;;;;26.35;13.57;;;13.00;73.80;;;;;;4795560;29;20514;-85
2023/05/04 07:39:39;;;;;;;26.00;14.13;;;13.00;71.50;;;;;;4823688;29;20575;-85
2023/05/04 07:42:07;;;;;;;25.48;14.50;;;12.80;70.50;;;;;;4823743;29;20044;-85
2023/05/04 07:44:34;;;;;;;26.65;14.63;;;12.80;72.40;;;;;;4793934;29;20074;-86
2023/05/04 07:47:01;;;;;;;28.67;16.00;;;13.00;73.40;;;;;;4808193;29;20517;-85
2023/05/04 07:49:29;;;;;;;28.50;14.57;;;12.90;72.50;;;;;;4824579;29;20050;-86
2023/05/04 07:51:56;;;;;;;33.35;16.33;;;12.80;71.70;;;;;;4792490;29;20119;-85
2023/05/04 07:54:23;;;;;;;26.75;15.05;;;12.70;72.20;;;;;;4823756;29;20047;-85
2023/05/04 07:56:51;;;;;;;27.50;14.27;;;12.60;73.40;;;;;;4808577;29;20580;-86
2023/05/04 07:59:18;;;;;;;27.43;14.90;;;12.70;72.40;;;;;;4791115;29;20107;-86
2023/05/04 08:01:46;;;;;;;30.45;15.15;;;12.70;73.50;;;;;;4793772;29;20054;-85
2023/05/04 08:04:13;;;;;;;26.30;14.25;;;12.80;73.80;;;;;;4805530;29;20050;-85
2023/05/04 08:06:40;;;;;;;28.40;15.57;;;12.80;72.50;;;;;;4824873;29;20043;-85
2023/05/04 08:09:08;;;;;;;28.83;16.48;;;12.70;72.60;;;;;;4792267;29;20050;-86
2023/05/04 08:11:36;;;;;;;29.53;15.67;;;12.60;73.10;;;;;;4805873;29;20052;-85
2023/05/04 08:14:03;;;;;;;32.03;17.67;;;12.70;73.70;;;;;;4823319;29;20179;-85
2023/05/04 08:16:31;;;;;;;31.70;16.35;;;12.80;74.30;;;;;;4823557;29;20054;-85
2023/05/04 08:18:59;;;;;;;28.70;14.82;;;12.70;73.60;;;;;;4811265;29;20053;-85
2023/05/04 08:21:27;;;;;;;26.27;14.85;;;12.70;72.00;;;;;;4808030;29;20070;-85
2023/05/04 08:23:54;;;;;;;26.93;14.27;;;12.80;71.60;;;;;;4823122;29;20493;-85
2023/05/04 08:26:22;;;;;;;31.27;15.15;;;12.70;72.20;;;;;;4824220;29;20401;-86
2023/05/04 08:28:49;;;;;;;30.90;16.02;;;12.80;72.80;;;;;;4792547;29;20051;-85
2023/05/04 08:31:20;;;;;;;29.40;15.90;;;12.70;71.80;;;;;;4823398;29;20497;-85
2023/05/04 08:33:47;;;;;;;25.30;14.27;;;12.80;72.20;;;;;;4807980;29;20099;-85
2023/05/04 08:36:14;;;;;;;27.17;14.87;;;12.90;71.80;;;;;;4792777;29;20046;-85
2023/05/04 08:38:41;;;;;;;25.63;15.32;;;12.80;71.60;;;;;;4808490;29;20050;-85
2023/05/04 08:41:09;;;;;;;26.13;13.88;;;12.80;71.80;;;;;;4807898;29;20049;-86
2023/05/04 08:43:37;;;;;;;24.17;13.85;;;13.00;71.40;;;;;;4810477;29;20081;-85
2023/05/04 08:46:05;;;;;;;29.50;15.23;;;13.00;71.00;;;;;;4792762;29;20530;-85
2023/05/04 08:48:33;;;;;;;27.47;16.00;;;13.10;71.20;;;;;;4822661;29;20058;-85
2023/05/04 08:51:03;;;;;;;24.85;14.55;;;13.10;71.90;;;;;;4823168;29;20050;-85
2023/05/04 08:53:31;;;;;;;18.52;9.10;;;13.30;72.30;;;;;;4792595;29;20105;-85
2023/05/04 08:56:03;;;;;;;20.25;11.38;;;13.50;65.50;;;;;;4788318;29;20084;-86
2023/05/04 08:58:31;;;;;;;16.20;9.63;;;13.80;67.60;;;;;;4791786;29;20054;-85
2023/05/04 09:00:59;;;;;;;16.67;10.10;;;13.80;63.40;;;;;;4792631;29;20514;-85
2023/05/04 09:03:28;;;;;;;15.82;9.00;;;13.90;66.20;;;;;;4807514;29;20058;-85
2023/05/04 09:05:56;;;;;;;16.00;9.50;;;14.10;63.20;;;;;;4807869;29;20443;-85
2023/05/04 09:08:23;;;;;;;17.23;9.27;;;14.30;64.20;;;;;;4822771;29;20046;-85
2023/05/04 09:10:50;;;;;;;17.13;8.88;;;14.50;64.30;;;;;;4807396;29;20054;-85
2023/05/04 09:13:17;;;;;;;15.57;8.23;;;14.80;61.00;;;;;;4792023;29;20082;-85
2023/05/04 09:15:57;;;;;;;14.88;8.15;;;14.70;63.90;;;;;;4792063;29;20054;-86
2023/05/04 09:18:40;;;;;;;14.93;7.85;;;14.80;62.40;;;;;;4792158;29;20054;-85
2023/05/04 09:21:08;;;;;;;17.05;8.82;;;14.90;62.10;;;;;;4807656;29;20085;-85
2023/05/04 09:23:49;;;;;;;15.82;8.95;;;15.00;62.90;;;;;;4807580;29;20038;-86
2023/05/04 09:26:30;;;;;;;15.23;9.53;;;15.00;60.20;;;;;;4807225;29;20523;-85
2023/05/04 09:29:13;;;;;;;16.30;9.02;;;14.80;61.10;;;;;;4794502;29;20095;-85
2023/05/04 09:31:47;;;;;;;17.63;9.50;;;14.80;61.80;;;;;;4806769;29;20117;-85
2023/05/04 09:34:15;;;;;;;15.73;8.45;;;14.90;63.40;;;;;;4822496;29;20062;-85
2023/05/04 09:36:42;;;;;;;17.00;8.63;;;15.00;60.30;;;;;;4792097;29;20049;-86
2023/05/04 09:39:14;;;;;;;17.43;8.70;;;15.00;61.90;;;;;;4822407;29;20046;-85
2023/05/04 09:41:42;;;;;;;16.15;8.93;;;14.90;60.40;;;;;;4795683;29;20084;-85
2023/05/04 09:44:23;;;;;;;15.43;9.48;;;15.10;61.70;;;;;;4789327;29;20058;-85
2023/05/04 09:46:54;;;;;;;13.20;8.25;;;15.00;60.90;;;;;;4805151;29;20561;-86
2023/05/04 09:49:34;;;;;;;12.30;6.78;;;15.00;60.10;;;;;;4807589;29;20106;-85
2023/05/04 09:52:04;;;;;;;12.47;7.87;;;15.20;60.60;;;;;;4821365;29;20092;-85
2023/05/04 09:54:34;;;;;;;18.17;7.03;;;15.30;58.30;;;;;;4807132;29;20047;-86
2023/05/04 09:57:22;;;;;;;12.57;7.25;;;15.40;58.90;;;;;;4790965;29;20058;-86
2023/05/04 09:59:51;;;;;;;19.95;7.10;;;15.50;58.10;;;;;;4806560;29;20046;-86
2023/05/04 10:02:18;;;;;;;13.38;6.85;;;15.40;59.40;;;;;;4792103;29;20047;-85
2023/05/04 10:04:51;;;;;;;15.40;6.97;;;15.60;60.80;;;;;;4795545;29;20058;-86
2023/05/04 10:07:19;;;;;;;12.50;6.75;;;15.60;56.00;;;;;;4805966;29;20098;-86
2023/05/04 10:09:47;;;;;;;13.88;7.07;;;15.60;56.80;;;;;;4807197;29;20077;-86
2023/05/04 10:12:15;;;;;;;10.55;6.20;;;15.50;56.40;;;;;;4807019;29;20073;-86
2023/05/04 10:14:45;;;;;;;12.90;6.53;;;15.40;57.60;;;;;;4804883;29;20046;-85
2023/05/04 10:17:15;;;;;;;10.80;5.13;;;15.50;57.80;;;;;;4806804;29;20050;-86
2023/05/04 10:20:17;;;;;;;10.85;5.70;;;15.80;58.20;;;;;;4811874;29;20038;-85
2023/05/04 10:22:59;;;;;;;13.75;6.38;;;15.90;53.40;;;;;;4806188;29;20043;-85
2023/05/04 10:25:48;;;;;;;9.88;5.65;;;15.90;55.60;;;;;;4806167;29;20050;-85
2023/05/04 10:28:36;;;;;;;11.13;5.90;;;15.90;54.60;;;;;;4823715;29;20513;-86
2023/05/04 10:31:05;;;;;;;11.63;6.03;;;16.00;56.90;;;;;;4824826;29;20062;-85
2023/05/04 10:33:39;;;;;;;11.10;5.82;;;16.00;55.20;;;;;;4795446;29;20054;-86
2023/05/04 10:36:07;;;;;;;10.85;6.07;;;15.90;53.80;;;;;;4810447;29;20054;-86
2023/05/04 10:38:35;;;;;;;9.95;5.30;;;15.90;56.80;;;;;;4796549;29;20045;-85
2023/05/04 10:41:19;;;;;;;14.35;5.93;;;16.10;56.50;;;;;;4813738;29;20051;-86
2023/05/04 10:43:51;;;;;;;15.53;5.90;;;16.10;54.40;;;;;;4809772;29;20046;-86
2023/05/04 10:46:20;;;;;;;10.25;4.90;;;16.00;56.00;;;;;;4794958;29;20141;-86
2023/05/04 10:48:48;;;;;;;10.80;4.95;;;16.00;53.20;;;;;;4794928;29;20050;-86
2023/05/04 10:51:23;;;;;;;11.60;5.32;;;15.90;54.40;;;;;;4797126;29;20054;-86
2023/05/04 10:53:54;;;;;;;12.10;5.45;;;16.10;56.40;;;;;;4792642;29;20043;-85
2023/05/04 10:56:22;;;;;;;13.03;5.73;;;16.10;56.10;;;;;;4794407;29;20076;-86
2023/05/04 10:58:50;;;;;;;21.67;5.93;;;16.20;53.00;;;;;;4810088;29;20081;-86
2023/05/04 11:01:17;;;;;;;10.30;5.68;;;16.20;55.40;;;;;;4824680;29;20129;-85
2023/05/04 11:03:45;;;;;;;9.57;5.25;;;16.30;54.70;;;;;;4793857;29;20096;-86
2023/05/04 11:06:21;;;;;;;10.35;5.78;;;16.40;54.20;;;;;;4796247;29;20049;-86
2023/05/04 11:09:01;;;;;;;11.63;5.63;;;16.30;53.10;;;;;;4790058;29;20134;-86
2023/05/04 11:11:28;;;;;;;10.50;5.30;;;16.20;52.40;;;;;;4808188;29;20061;-86
2023/05/04 11:13:55;;;;;;;11.88;5.13;;;16.10;53.70;;;;;;4824664;29;20055;-86
2023/05/04 11:16:24;;;;;;;9.70;5.57;;;16.10;52.30;;;;;;4811568;29;20047;-86
2023/05/04 11:18:54;;;;;;;10.90;5.45;;;16.00;54.90;;;;;;4797074;29;20146;-85
2023/05/04 11:21:25;;;;;;;9.97;5.40;;;16.20;53.50;;;;;;4794807;29;20050;-86
2023/05/04 11:23:56;;;;;;;9.77;5.60;;;16.30;53.50;;;;;;4793930;29;20054;-86
2023/05/04 11:26:24;;;;;;;9.95;6.00;;;16.50;50.70;;;;;;4816660;29;20046;-86
2023/05/04 11:28:51;;;;;;;10.40;5.50;;;16.50;52.50;;;;;;4795866;29;20054;-86
2023/05/04 11:31:20;;;;;;;9.60;4.80;;;16.50;54.20;;;;;;4807902;29;20059;-85
2023/05/04 11:33:48;;;;;;;10.50;4.77;;;16.60;51.20;;;;;;4813508;29;20065;-86
2023/05/04 11:36:16;;;;;;;10.10;5.60;;;16.70;51.20;;;;;;4794103;29;20055;-85
2023/05/04 11:38:44;;;;;;;10.20;5.43;;;16.70;51.30;;;;;;4807498;29;20043;-86
2023/05/04 11:41:11;;;;;;;9.50;5.78;;;16.80;51.30;;;;;;4794279;29;20069;-86
2023/05/04 11:43:42;;;;;;;10.65;4.78;;;16.80;52.30;;;;;;4810632;29;20051;-86
2023/05/04 11:46:10;;;;;;;9.20;4.27;;;16.60;52.20;;;;;;4804309;29;20493;-86
2023/05/04 11:48:37;;;;;;;11.57;5.22;;;16.70;51.50;;;;;;4823549;29;20140;-85
2023/05/04 11:51:05;;;;;;;11.48;5.45;;;16.90;55.10;;;;;;4793106;29;20061;-85
2023/05/04 11:53:37;;;;;;;11.18;4.72;;;17.00;50.20;;;;;;4823652;29;20073;-86
2023/05/04 11:56:07;;;;;;;8.05;4.28;;;17.10;52.00;;;;;;4792332;29;20491;-86
2023/05/04 11:58:34;;;;;;;9.20;4.80;;;17.10;49.00;;;;;;4794064;29;20046;-86
2023/05/04 12:01:02;;;;;;;8.95;4.43;;;17.00;51.40;;;;;;4795407;29;20077;-86
2023/05/04 12:03:32;;;;;;;8.95;4.70;;;17.00;52.20;;;;;;4811975;29;20069;-85
2023/05/04 12:06:29;;;;;;;11.90;5.25;;;17.00;49.20;;;;;;4796425;29;20047;-86
2023/05/04 12:09:04;;;;;;;8.88;4.78;;;16.80;48.60;;;;;;4808281;29;20160;-86
2023/05/04 12:11:33;;;;;;;11.67;4.30;;;16.70;50.10;;;;;;4795593;29;20042;-85
2023/05/04 12:14:05;;;;;;;9.65;4.93;;;16.70;49.30;;;;;;4808213;29;20459;-85
2023/05/04 12:16:33;;;;;;;9.30;4.50;;;16.90;50.50;;;;;;4790795;29;20050;-86
2023/05/04 12:19:05;;;;;;;10.05;4.55;;;17.10;49.30;;;;;;4807759;29;20054;-85
2023/05/04 12:21:33;;;;;;;8.50;4.50;;;17.10;49.10;;;;;;4808567;29;20046;-85
2023/05/04 12:24:02;;;;;;;9.63;4.20;;;17.10;46.60;;;;;;4793847;29;20050;-85
2023/05/04 12:26:29;;;;;;;9.60;4.90;;;17.10;50.50;;;;;;4785775;29;20501;-86
2023/05/04 12:28:56;;;;;;;12.93;5.00;;;17.20;48.60;;;;;;4806677;29;20050;-85
2023/05/04 12:31:23;;;;;;;11.85;4.90;;;17.30;49.00;;;;;;4808380;29;20043;-86
2023/05/04 12:33:51;;;;;;;10.70;5.00;;;17.30;48.70;;;;;;4808238;29;20543;-86
2023/05/04 12:36:18;;;;;;;10.07;5.47;;;17.30;47.50;;;;;;4807881;29;20417;-86
2023/05/04 12:38:45;;;;;;;8.85;4.68;;;17.10;46.50;;;;;;4808300;29;20070;-86
2023/05/04 12:41:12;;;;;;;8.27;4.68;;;17.20;48.70;;;;;;4809427;29;20066;-86